Time;durP1;ratioP1;P1;durP2;ratioP2;P2;SDS_P1;SDS_P2;PMS_P1;PMS_P2;Temp;Humidity;BMP_temperature;BMP_pressure;BME280_temperature;BME280_humidity;BME280_pressure;Samples;Min_cycle;Max_cycle;Signal;HPM_P1;HPM_P2
2024/02/08 00:00:35;;;;;;;17.27;9.68;;;19.20;76.60;;;;;;5069651;28;20077;-67
2024/02/08 00:03:03;;;;;;;14.98;9.57;;;19.20;76.70;;;;;;5071224;28;20410;-67
2024/02/08 00:05:28;;;;;;;13.23;8.65;;;19.20;76.60;;;;;;5075383;28;20028;-66
2024/02/08 00:07:54;;;;;;;13.85;9.07;;;19.20;76.70;;;;;;5075164;28;20021;-67
2024/02/08 00:10:20;;;;;;;11.32;8.15;;;19.20;76.80;;;;;;5076419;28;20021;-67
2024/02/08 00:12:45;;;;;;;13.32;9.18;;;19.20;76.50;;;;;;5074007;28;20060;-68
2024/02/08 00:15:12;;;;;;;12.30;8.02;;;19.20;76.80;;;;;;5075210;28;20135;-67
2024/02/08 00:17:37;;;;;;;14.27;9.23;;;19.20;76.70;;;;;;5075820;28;20503;-69
2024/02/08 00:20:06;;;;;;;16.58;7.90;;;19.20;76.90;;;;;;5075781;28;20071;-67
2024/02/08 00:22:31;;;;;;;13.13;8.35;;;19.20;76.60;;;;;;5073309;28;20024;-69
2024/02/08 00:24:57;;;;;;;14.23;8.18;;;19.30;77.00;;;;;;5074483;28;20035;-69
2024/02/08 00:27:23;;;;;;;10.85;7.35;;;19.20;77.10;;;;;;5074589;28;20020;-68
2024/02/08 00:29:48;;;;;;;12.75;8.88;;;19.20;77.00;;;;;;5073465;28;20028;-68
2024/02/08 00:32:14;;;;;;;13.52;8.23;;;19.20;77.10;;;;;;5074425;28;20503;-68
2024/02/08 00:34:40;;;;;;;11.15;7.70;;;19.20;76.80;;;;;;5074588;28;20103;-70
2024/02/08 00:37:07;;;;;;;10.80;8.13;;;19.20;77.00;;;;;;5074482;28;20035;-69
2024/02/08 00:39:33;;;;;;;11.70;7.57;;;19.20;77.20;;;;;;5074342;28;20151;-68
2024/02/08 00:41:58;;;;;;;12.65;7.45;;;19.20;77.10;;;;;;5074181;28;20048;-68
2024/02/08 00:44:27;;;;;;;10.88;7.18;;;19.30;77.20;;;;;;5074268;28;20488;-70
2024/02/08 00:46:53;;;;;;;10.70;7.25;;;19.20;77.10;;;;;;5073080;28;20549;-69
2024/02/08 00:49:21;;;;;;;11.30;7.50;;;19.30;77.00;;;;;;5074372;28;20028;-70
2024/02/08 00:51:48;;;;;;;8.93;6.88;;;19.20;77.10;;;;;;5074048;28;20024;-70
2024/02/08 00:54:17;;;;;;;10.25;7.43;;;19.20;77.00;;;;;;5073997;28;20056;-70
2024/02/08 00:56:43;;;;;;;16.08;7.57;;;19.20;77.00;;;;;;5074035;28;20024;-67
2024/02/08 00:59:10;;;;;;;10.90;6.82;;;19.20;77.20;;;;;;5074025;28;20502;-69
2024/02/08 01:01:39;;;;;;;9.38;6.53;;;19.20;77.20;;;;;;5073801;28;20557;-70
2024/02/08 01:04:05;;;;;;;11.00;6.85;;;19.20;77.30;;;;;;5073955;28;20101;-69
2024/02/08 01:06:31;;;;;;;10.35;6.60;;;19.30;77.30;;;;;;5074135;28;20099;-68
2024/02/08 01:08:57;;;;;;;16.38;7.32;;;19.20;77.10;;;;;;5073840;28;20488;-68
2024/02/08 01:11:22;;;;;;;11.50;6.15;;;19.20;77.10;;;;;;5073583;28;20021;-68
2024/02/08 01:13:48;;;;;;;9.45;6.65;;;19.20;77.10;;;;;;5073797;28;20064;-69
2024/02/08 01:16:14;;;;;;;10.75;6.78;;;19.20;77.10;;;;;;5073162;28;20025;-69
2024/02/08 01:18:42;;;;;;;11.75;6.60;;;19.20;77.10;;;;;;5072810;28;20070;-68
2024/02/08 01:21:11;;;;;;;8.63;5.63;;;19.20;77.10;;;;;;5073592;28;20059;-68
2024/02/08 01:23:39;;;;;;;14.00;6.72;;;19.20;77.00;;;;;;5073259;28;20495;-68
2024/02/08 01:26:07;;;;;;;11.65;6.47;;;19.20;77.10;;;;;;5073627;28;20082;-69
2024/02/08 01:28:32;;;;;;;10.60;7.05;;;19.20;77.30;;;;;;5073706;28;20698;-70
2024/02/08 01:30:58;;;;;;;10.82;6.15;;;19.30;77.30;;;;;;5073407;28;20032;-70
2024/02/08 01:33:24;;;;;;;7.90;5.53;;;19.20;77.20;;;;;;5073591;28;20107;-70
2024/02/08 01:35:51;;;;;;;9.70;5.78;;;19.20;77.20;;;;;;5073565;28;20111;-68
2024/02/08 01:38:18;;;;;;;8.65;5.70;;;19.20;77.10;;;;;;5073298;28;20056;-70
2024/02/08 01:40:44;;;;;;;9.48;5.38;;;19.20;77.30;;;;;;5073021;28;20024;-70
2024/02/08 01:43:10;;;;;;;8.88;5.38;;;19.20;77.20;;;;;;5073048;28;20040;-70
2024/02/08 01:45:41;;;;;;;8.75;5.78;;;19.20;77.40;;;;;;5073390;28;20506;-70
2024/02/08 01:48:12;;;;;;;10.02;5.68;;;19.30;77.40;;;;;;5073130;28;20047;-70
2024/02/08 01:50:38;;;;;;;;;;;19.20;77.40;;;;;;5073390;28;20492;-70
2024/02/08 01:53:06;;;;;;;6.57;5.05;;;19.20;77.50;;;;;;5072865;28;19904;-69
2024/02/08 01:55:35;;;;;;;6.75;5.28;;;19.20;77.50;;;;;;5073020;28;20029;-69
2024/02/08 01:58:07;;;;;;;10.10;5.88;;;19.20;77.70;;;;;;5072999;28;20074;-69
2024/02/08 02:00:36;;;;;;;7.40;5.47;;;19.20;77.70;;;;;;5072798;28;20112;-69
2024/02/08 02:03:04;;;;;;;15.38;4.80;;;19.20;77.60;;;;;;5072699;28;20024;-69
2024/02/08 02:05:30;;;;;;;8.32;4.93;;;19.20;77.70;;;;;;5072707;28;20024;-69
2024/02/08 02:07:57;;;;;;;7.85;5.47;;;19.20;77.60;;;;;;5072941;28;20033;-68
2024/02/08 02:10:29;;;;;;;9.48;5.32;;;19.20;77.60;;;;;;5071451;28;20078;-68
2024/02/08 02:12:59;;;;;;;8.27;5.13;;;19.20;77.20;;;;;;5072812;28;20074;-68
2024/02/08 02:15:24;;;;;;;8.82;5.00;;;19.20;77.30;;;;;;5072655;28;20024;-69
2024/02/08 02:17:50;;;;;;;9.52;4.80;;;19.20;77.20;;;;;;5072534;28;20400;-68
2024/02/08 02:20:24;;;;;;;9.43;4.65;;;19.20;77.30;;;;;;5071011;28;20028;-68
2024/02/08 02:22:51;;;;;;;8.40;4.80;;;19.20;77.30;;;;;;5072560;28;20519;-68
2024/02/08 02:25:16;;;;;;;6.53;4.43;;;19.20;77.20;;;;;;5072318;28;20040;-69
2024/02/08 02:27:42;;;;;;;5.85;4.30;;;19.20;77.60;;;;;;5070337;28;20032;-69
2024/02/08 02:30:15;;;;;;;5.40;4.25;;;19.20;77.20;;;;;;5072176;28;20487;-68
2024/02/08 02:32:46;;;;;;;7.25;4.47;;;19.20;77.10;;;;;;5072396;28;20078;-68
2024/02/08 02:35:16;;;;;;;6.95;4.30;;;19.20;77.20;;;;;;5072275;28;20067;-68
2024/02/08 02:37:45;;;;;;;6.30;4.38;;;19.20;77.10;;;;;;5070948;28;20035;-67
2024/02/08 02:40:22;;;;;;;6.75;4.22;;;19.20;77.00;;;;;;5070738;28;20028;-68
2024/02/08 02:42:52;;;;;;;7.55;4.47;;;19.20;77.30;;;;;;5072050;28;20025;-68
2024/02/08 02:45:23;;;;;;;8.68;4.47;;;19.20;77.10;;;;;;5071885;28;20486;-70
2024/02/08 02:47:53;;;;;;;8.10;4.60;;;19.20;77.20;;;;;;5072318;28;20409;-69
2024/02/08 02:50:25;;;;;;;6.32;4.05;;;19.20;77.20;;;;;;5071144;28;20400;-71
2024/02/08 02:52:52;;;;;;;8.02;4.22;;;19.20;77.00;;;;;;5072468;28;20029;-70
2024/02/08 02:55:18;;;;;;;7.07;4.35;;;19.20;77.10;;;;;;5072340;28;20025;-70
2024/02/08 02:57:44;;;;;;;7.93;3.90;;;19.20;77.10;;;;;;5072283;28;20365;-70
2024/02/08 03:00:33;;;;;;;6.85;3.65;;;19.20;77.20;;;;;;5071795;28;20021;-70
2024/02/08 03:03:06;;;;;;;7.35;4.25;;;19.20;77.00;;;;;;5070447;28;20036;-70
2024/02/08 03:05:43;;;;;;;6.43;3.95;;;19.20;76.90;;;;;;5071831;28;20082;-70
2024/02/08 03:08:09;;;;;;;4.80;3.80;;;19.20;77.50;;;;;;5071813;28;20031;-69
2024/02/08 03:10:38;;;;;;;5.78;4.20;;;19.20;77.60;;;;;;5071706;28;20033;-69
2024/02/08 03:13:04;;;;;;;5.70;3.92;;;19.20;77.80;;;;;;5071653;28;20025;-69
2024/02/08 03:15:30;;;;;;;4.60;3.42;;;19.20;77.80;;;;;;5070199;28;20024;-70
2024/02/08 03:17:56;;;;;;;7.55;4.15;;;19.20;77.30;;;;;;5070346;28;20407;-70
2024/02/08 03:20:29;;;;;;;5.03;3.90;;;19.20;77.60;;;;;;5069998;28;20020;-70
2024/02/08 03:22:56;;;;;;;7.40;4.30;;;19.20;77.40;;;;;;5071759;28;20031;-66
2024/02/08 03:25:22;;;;;;;6.78;3.88;;;19.20;77.60;;;;;;5070208;28;20380;-68
2024/02/08 03:27:51;;;;;;;5.63;3.50;;;19.20;78.10;;;;;;5071555;28;20100;-70
2024/02/08 03:30:30;;;;;;;6.72;4.03;;;19.20;78.00;;;;;;5071346;28;20020;-68
2024/02/08 03:32:57;;;;;;;7.18;3.45;;;19.20;77.80;;;;;;5071602;28;20412;-67
2024/02/08 03:35:29;;;;;;;5.15;3.85;;;19.20;77.80;;;;;;5070198;28;20565;-67
2024/02/08 03:37:55;;;;;;;6.13;3.63;;;19.20;77.80;;;;;;5071573;28;20112;-67
2024/02/08 03:40:25;;;;;;;7.45;3.55;;;19.20;77.80;;;;;;5075457;28;20112;-67
2024/02/08 03:42:53;;;;;;;7.65;3.53;;;19.20;77.80;;;;;;5075558;28;20024;-67
2024/02/08 03:45:23;;;;;;;5.65;3.88;;;19.20;78.00;;;;;;5075378;28;20040;-67
2024/02/08 03:47:50;;;;;;;4.43;3.13;;;19.20;78.10;;;;;;5074217;28;20025;-67
2024/02/08 03:50:16;;;;;;;5.40;3.40;;;19.20;78.10;;;;;;5075343;28;20024;-67
2024/02/08 03:52:42;;;;;;;6.10;3.40;;;19.20;78.00;;;;;;5075491;28;20051;-67
2024/02/08 03:55:08;;;;;;;10.93;3.50;;;19.20;78.10;;;;;;5075162;28;20078;-67
2024/02/08 03:57:37;;;;;;;5.82;3.30;;;19.20;78.10;;;;;;5075280;28;20028;-66
2024/02/08 04:00:07;;;;;;;3.90;3.03;;;19.20;78.10;;;;;;5075101;28;20036;-66
2024/02/08 04:02:35;;;;;;;5.75;3.22;;;19.20;78.20;;;;;;5074943;28;20033;-67
2024/02/08 04:05:05;;;;;;;6.90;3.15;;;19.20;78.20;;;;;;5075137;28;20028;-67
2024/02/08 04:07:45;;;;;;;3.95;3.35;;;19.20;78.20;;;;;;5075114;28;20023;-69
2024/02/08 04:53:30;;;;;;;6.28;3.08;;;19.20;78.20;;;;;;5074901;28;20017;-71
2024/02/08 04:54:10;;;;;;;5.50;2.83;;;19.20;78.30;;;;;;5074156;28;20047;-70
2024/02/08 04:56:36;;;;;;;5.95;2.60;;;19.20;78.40;;;;;;5074597;28;20480;-69
2024/02/08 04:59:05;;;;;;;3.50;2.45;;;19.20;78.30;;;;;;5074693;28;20161;-69
2024/02/08 05:01:32;;;;;;;6.22;2.58;;;19.20;78.20;;;;;;5072701;28;20024;-71
2024/02/08 05:03:59;;;;;;;6.97;2.72;;;19.20;78.20;;;;;;5068345;28;20053;-70
2024/02/08 05:06:25;;;;;;;3.55;2.38;;;19.20;78.20;;;;;;5054187;28;20063;-72
2024/02/08 05:08:57;;;;;;;5.38;2.30;;;19.20;78.00;;;;;;5053973;28;20029;-71
2024/02/08 05:11:28;;;;;;;8.15;2.70;;;19.20;78.20;;;;;;5052629;28;20455;-70
2024/02/08 05:13:59;;;;;;;5.55;2.45;;;19.10;78.10;;;;;;5053826;28;20033;-70
2024/02/08 05:16:27;;;;;;;5.25;2.58;;;19.20;78.20;;;;;;5052683;28;20021;-70
2024/02/08 05:18:55;;;;;;;5.40;2.83;;;19.20;78.20;;;;;;5053900;28;20064;-70
2024/02/08 05:21:22;;;;;;;5.70;2.13;;;19.20;78.30;;;;;;5054681;28;20488;-68
2024/02/08 05:23:51;;;;;;;5.65;2.10;;;19.20;78.20;;;;;;5053421;28;20040;-67
2024/02/08 05:26:25;;;;;;;4.35;2.72;;;19.20;78.30;;;;;;5053736;28;20033;-68
2024/02/08 05:28:54;;;;;;;4.35;2.40;;;19.10;78.30;;;;;;5053982;28;20029;-69
2024/02/08 05:31:20;;;;;;;4.25;2.40;;;19.10;78.30;;;;;;5054405;28;20082;-70
2024/02/08 05:33:45;;;;;;;6.50;2.20;;;19.20;78.40;;;;;;5053274;28;20029;-70
2024/02/08 05:36:12;;;;;;;6.53;3.00;;;19.20;78.50;;;;;;5053744;28;20104;-70
2024/02/08 05:38:41;;;;;;;5.20;2.40;;;19.10;78.50;;;;;;5053370;28;20517;-70
2024/02/08 05:41:11;;;;;;;3.35;2.33;;;19.20;78.40;;;;;;5053214;28;20433;-70
2024/02/08 05:43:47;;;;;;;3.30;2.30;;;19.10;78.50;;;;;;5053186;28;20108;-72
2024/02/08 05:46:27;;;;;;;4.90;1.85;;;19.10;78.40;;;;;;5053056;28;20036;-70
2024/02/08 05:49:04;;;;;;;3.17;2.25;;;19.20;78.60;;;;;;5053203;28;20029;-69
2024/02/08 05:51:30;;;;;;;2.28;1.80;;;19.10;78.50;;;;;;5052810;28;20029;-70
2024/02/08 05:53:56;;;;;;;3.88;2.25;;;19.20;78.50;;;;;;5053031;28;20039;-69
2024/02/08 05:56:21;;;;;;;2.78;1.80;;;19.10;78.50;;;;;;5053657;28;20108;-70
2024/02/08 05:59:01;;;;;;;6.93;2.45;;;19.20;78.50;;;;;;5052927;28;20017;-72
2024/02/08 06:01:32;;;;;;;5.32;2.15;;;19.10;78.70;;;;;;5052437;28;20029;-69
2024/02/08 06:04:02;;;;;;;5.47;2.15;;;19.20;79.00;;;;;;5052745;28;20017;-71
2024/02/08 06:06:34;;;;;;;8.93;2.35;;;19.20;78.70;;;;;;5052821;28;20071;-69
2024/02/08 06:09:08;;;;;;;;;;;19.20;78.60;;;;;;5053343;28;20053;-69
2024/02/08 06:11:37;;;;;;;5.85;2.15;;;19.20;78.60;;;;;;5052515;28;19951;-69
2024/02/08 06:14:12;;;;;;;7.03;2.25;;;19.20;78.70;;;;;;5052546;28;20109;-68
2024/02/08 06:16:47;;;;;;;7.25;2.78;;;19.20;78.60;;;;;;5051531;28;20471;-73
2024/02/08 06:19:15;;;;;;;9.57;2.30;;;19.20;78.70;;;;;;5052695;28;20021;-71
2024/02/08 06:21:54;;;;;;;7.70;2.50;;;19.20;78.70;;;;;;5052131;28;20021;-71
2024/02/08 06:26:56;;;;;;;6.38;2.00;;;19.20;78.20;;;;;;5064522;28;20028;-68
2024/02/08 06:29:26;;;;;;;11.05;2.28;;;19.20;78.20;;;;;;5072326;28;20028;-68
2024/02/08 06:32:08;;;;;;;8.60;2.60;;;19.20;78.00;;;;;;5072117;28;20034;-68
2024/02/08 06:34:45;;;;;;;5.38;2.08;;;19.20;77.70;;;;;;5072083;28;20108;-67
2024/02/08 06:37:26;;;;;;;17.20;3.78;;;19.20;77.50;;;;;;5072418;28;20028;-68
2024/02/08 06:39:56;;;;;;;12.05;3.67;;;19.20;78.60;;;;;;5072041;28;20032;-68
2024/02/08 07:37:19;;;;;;;6.47;4.78;;;15.80;54.10;;;;;;5051492;28;20036;-71
2024/02/08 07:39:54;;;;;;;6.95;4.45;;;15.50;54.50;;;;;;5053324;28;20021;-65
2024/02/08 07:42:29;;;;;;;6.50;3.78;;;15.40;58.30;;;;;;5051729;28;20445;-66
2024/02/08 07:45:07;;;;;;;6.63;3.70;;;15.90;67.10;;;;;;5051810;28;20626;-66
2024/02/08 07:47:35;;;;;;;4.38;3.22;;;16.30;68.50;;;;;;5051873;28;20030;-66
2024/02/08 07:50:04;;;;;;;6.32;3.53;;;16.60;69.30;;;;;;5052092;28;20358;-65
2024/02/08 07:52:45;;;;;;;5.43;3.10;;;16.80;69.50;;;;;;5052454;28;20451;-65
2024/02/08 07:55:14;;;;;;;5.55;3.30;;;17.00;69.70;;;;;;5052344;28;20024;-65
2024/02/08 07:57:48;;;;;;;7.68;3.03;;;17.20;69.80;;;;;;5057639;28;20106;-67
2024/02/08 08:00:41;;;;;;;3.00;2.40;;;17.40;70.00;;;;;;5059575;28;20033;-66
2024/02/08 08:03:09;;;;;;;5.30;2.40;;;17.50;70.10;;;;;;5059006;28;20029;-67
2024/02/08 08:05:41;;;;;;;3.80;2.28;;;17.70;70.30;;;;;;5055262;28;20100;-67
2024/02/08 08:08:25;;;;;;;4.05;1.92;;;17.80;70.40;;;;;;5064297;28;20377;-67
2024/02/08 08:11:06;;;;;;;12.10;3.25;;;18.00;70.30;;;;;;5068099;28;20100;-66
2024/02/08 08:19:07;;;;;;;5.03;2.20;;;18.30;70.00;;;;;;5070323;28;20029;-66
2024/02/08 08:24:25;;;;;;;6.82;2.40;;;18.40;69.90;;;;;;5071316;28;20036;-67
2024/02/08 08:27:26;;;;;;;5.20;2.60;;;18.40;69.90;;;;;;5074721;28;20908;-66
2024/02/08 08:29:52;;;;;;;4.00;2.20;;;18.50;69.90;;;;;;5074721;28;20016;-67
2024/02/08 08:38:13;;;;;;;3.85;1.77;;;18.50;69.80;;;;;;5074433;28;20063;-67
2024/02/08 08:40:38;;;;;;;5.65;2.83;;;18.50;69.70;;;;;;5073953;28;20115;-67
2024/02/08 08:43:10;;;;;;;3.28;1.88;;;18.60;69.70;;;;;;5074005;28;20029;-66
2024/02/08 08:45:36;;;;;;;4.00;2.30;;;18.60;69.70;;;;;;5074209;28;20036;-67
2024/02/08 08:48:02;;;;;;;6.95;2.75;;;18.60;69.70;;;;;;5074294;28;20023;-67
2024/02/08 08:50:31;;;;;;;4.65;2.08;;;18.70;69.60;;;;;;5073892;28;20403;-67
2024/02/08 08:52:58;;;;;;;2.97;1.90;;;18.70;69.50;;;;;;5074196;28;20483;-67
2024/02/08 08:55:24;;;;;;;5.57;2.03;;;18.70;69.50;;;;;;5074253;28;20067;-66
2024/02/08 08:58:00;;;;;;;3.35;1.95;;;18.70;69.60;;;;;;5074094;28;20029;-67
2024/02/08 09:00:32;;;;;;;6.15;2.08;;;18.70;69.70;;;;;;5074071;28;20028;-66
2024/02/08 09:03:04;;;;;;;2.35;1.92;;;18.70;69.80;;;;;;5073122;28;20059;-66
2024/02/08 09:05:30;;;;;;;3.40;1.92;;;18.70;69.80;;;;;;5074239;28;20420;-67
2024/02/08 09:08:00;;;;;;;3.95;2.00;;;18.70;69.90;;;;;;5074071;28;20024;-67
2024/02/08 09:10:34;;;;;;;7.00;1.95;;;18.60;69.90;;;;;;5073655;28;20511;-67
2024/02/08 09:13:06;;;;;;;6.28;2.20;;;18.70;69.90;;;;;;5073817;28;20173;-67
2024/02/08 09:15:47;;;;;;;6.40;2.08;;;18.70;69.90;;;;;;5073879;28;20365;-67
2024/02/08 09:18:15;;;;;;;2.28;1.60;;;18.70;69.90;;;;;;5073685;28;20373;-67
2024/02/08 09:20:42;;;;;;;3.25;1.85;;;18.70;69.90;;;;;;5073361;28;20085;-67
2024/02/08 09:23:14;;;;;;;4.32;1.95;;;18.70;69.90;;;;;;5072094;28;20111;-67
2024/02/08 09:25:46;;;;;;;3.67;1.83;;;18.70;69.90;;;;;;5073523;28;20028;-67
2024/02/08 09:28:35;;;;;;;2.28;1.58;;;18.60;69.90;;;;;;5073654;28;20036;-67
2024/02/08 09:31:16;;;;;;;3.33;1.67;;;18.70;69.90;;;;;;5073276;28;20028;-67
2024/02/08 09:33:47;;;;;;;3.40;1.42;;;18.70;69.90;;;;;;5073440;28;20105;-67
2024/02/08 09:36:15;;;;;;;2.70;1.73;;;18.70;70.00;;;;;;5072976;28;20135;-67
2024/02/08 09:38:45;;;;;;;2.33;1.67;;;18.70;70.00;;;;;;5073588;28;20024;-67
2024/02/08 09:41:15;;;;;;;3.08;1.83;;;18.70;70.00;;;;;;5073178;28;20024;-67
2024/02/08 09:43:45;;;;;;;2.17;1.40;;;18.70;70.00;;;;;;5073360;28;20407;-67
2024/02/08 09:46:49;;;;;;;4.43;1.77;;;18.70;70.00;;;;;;5072019;28;20070;-67
2024/02/08 09:49:17;;;;;;;3.28;1.70;;;18.70;70.10;;;;;;5073112;28;20031;-66
2024/02/08 09:51:53;;;;;;;2.45;1.80;;;18.70;70.10;;;;;;5073176;28;20028;-67
2024/02/08 09:54:30;;;;;;;6.03;2.10;;;18.70;70.10;;;;;;5072658;28;20108;-67
2024/02/08 09:57:20;;;;;;;3.00;1.77;;;18.60;70.10;;;;;;5073083;28;20020;-67
2024/02/08 09:59:59;;;;;;;4.07;2.05;;;18.60;70.20;;;;;;5073153;28;20054;-67
2024/02/08 10:02:32;;;;;;;4.63;1.60;;;18.60;70.20;;;;;;5072708;28;20033;-67
2024/02/08 10:05:18;;;;;;;2.13;1.73;;;18.70;70.30;;;;;;5072918;28;20036;-67
2024/02/08 10:08:28;;;;;;;3.55;1.50;;;18.60;70.30;;;;;;5072817;28;20553;-67
2024/02/08 10:10:56;;;;;;;2.80;1.67;;;18.60;70.30;;;;;;5070093;28;20028;-67
2024/02/08 10:13:40;;;;;;;3.80;1.33;;;18.60;70.30;;;;;;5072920;28;20036;-67
2024/02/08 10:16:13;;;;;;;3.33;1.60;;;18.60;70.30;;;;;;5072658;28;20400;-67
2024/02/08 10:18:39;;;;;;;4.55;1.60;;;18.60;70.30;;;;;;5072572;28;20388;-67
2024/02/08 10:21:17;;;;;;;3.33;1.77;;;18.70;70.40;;;;;;5072405;28;20025;-67
2024/02/08 10:23:59;;;;;;;2.90;1.67;;;18.60;70.30;;;;;;5072680;28;20442;-66
2024/02/08 10:26:38;;;;;;;2.78;1.30;;;18.60;70.40;;;;;;5055449;22;20045;-66
2024/02/08 10:29:07;;;;;;;1.85;1.13;;;18.60;70.40;;;;;;5032267;28;20030;-66
2024/02/08 10:31:37;;;;;;;1.70;1.15;;;18.60;70.40;;;;;;5032211;28;20481;-66
2024/02/08 10:34:09;;;;;;;1.65;1.30;;;18.60;70.40;;;;;;5032490;28;20013;-66
2024/02/08 10:36:44;;;;;;;1.35;1.17;;;18.60;70.40;;;;;;5032444;28;20021;-66
2024/02/08 10:39:23;;;;;;;2.70;1.55;;;18.60;70.30;;;;;;5032307;28;20013;-66
2024/02/08 10:41:59;;;;;;;2.38;1.63;;;18.60;70.30;;;;;;5032293;28;20056;-66
2024/02/08 10:44:32;;;;;;;1.35;1.25;;;18.70;70.30;;;;;;5032423;28;20022;-66
2024/02/08 10:47:06;;;;;;;1.63;1.30;;;18.60;70.30;;;;;;5032230;28;20028;-66
2024/02/08 10:49:51;;;;;;;3.00;1.50;;;18.70;70.30;;;;;;5031207;28;20025;-66
2024/02/08 10:52:22;;;;;;;1.73;1.38;;;18.70;70.30;;;;;;5031937;28;20524;-66
2024/02/08 10:54:55;;;;;;;2.92;1.23;;;18.70;70.30;;;;;;5032010;28;20538;-69
2024/02/08 10:57:39;;;;;;;1.90;1.40;;;18.70;70.30;;;;;;5032129;28;20049;-67
2024/02/08 11:03:00;;;;;;;1.88;1.27;;;18.70;70.30;;;;;;5032233;28;20036;-66
2024/02/08 11:07:53;;;;;;;1.80;1.40;;;18.60;70.40;;;;;;5031986;28;20048;-67
2024/02/08 11:10:23;;;;;;;1.33;1.08;;;18.70;70.40;;;;;;5031336;28;20026;-66
2024/02/08 11:12:56;;;;;;;1.20;1.10;;;18.70;70.40;;;;;;5031832;28;20025;-66
2024/02/08 11:15:30;;;;;;;2.00;1.40;;;18.70;70.40;;;;;;5031653;28;20477;-66
2024/02/08 11:17:58;;;;;;;2.42;1.35;;;18.70;70.40;;;;;;5031849;28;20111;-66
2024/02/08 11:20:42;;;;;;;1.50;1.17;;;18.70;70.40;;;;;;5031478;28;20528;-66
2024/02/08 11:23:23;;;;;;;3.60;1.38;;;18.70;70.40;;;;;;5030188;28;20029;-67
2024/02/08 11:25:53;;;;;;;2.38;1.55;;;18.70;70.40;;;;;;5030193;28;20041;-66
2024/02/08 11:28:27;;;;;;;2.17;1.30;;;18.60;70.40;;;;;;5032399;28;20155;-66
2024/02/08 11:30:54;;;;;;;2.17;1.52;;;18.60;70.50;;;;;;5031377;28;20496;-66
2024/02/08 11:33:32;;;;;;;1.90;1.33;;;18.60;70.40;;;;;;5031531;28;20033;-67
2024/02/08 11:36:11;;;;;;;1.80;1.00;;;18.60;70.40;;;;;;5031640;28;20022;-66
2024/02/08 11:38:40;;;;;;;1.05;0.95;;;18.60;70.50;;;;;;5031833;28;20045;-66
2024/02/08 11:41:10;;;;;;;3.05;1.23;;;18.60;70.50;;;;;;5031200;28;20049;-66
2024/02/08 11:43:51;;;;;;;2.00;1.30;;;18.60;70.50;;;;;;5031401;28;20101;-66
2024/02/08 11:46:22;;;;;;;1.40;1.10;;;18.60;70.50;;;;;;5031590;28;20024;-66
2024/02/08 11:48:48;;;;;;;3.33;1.52;;;18.60;70.50;;;;;;5031569;28;20022;-66
2024/02/08 11:51:17;;;;;;;1.95;1.17;;;18.60;70.50;;;;;;5031288;28;20385;-66
2024/02/08 11:53:46;;;;;;;1.50;1.10;;;18.60;70.60;;;;;;5031386;28;20034;-66
2024/02/08 11:56:20;;;;;;;2.42;1.35;;;18.60;70.60;;;;;;5030078;28;20553;-66
2024/02/08 11:58:48;;;;;;;2.22;1.50;;;18.60;70.50;;;;;;5031348;28;20026;-67
2024/02/08 12:01:15;;;;;;;1.48;1.20;;;18.60;70.50;;;;;;5035017;28;20025;-67
2024/02/08 12:03:41;;;;;;;1.77;1.30;;;18.60;70.50;;;;;;5035486;28;20026;-67
2024/02/08 12:06:17;;;;;;;1.55;1.40;;;18.60;70.50;;;;;;5035359;28;20100;-67
2024/02/08 12:09:02;;;;;;;2.35;1.10;;;18.70;70.50;;;;;;5035187;28;20087;-67
2024/02/08 12:11:31;;;;;;;1.42;1.08;;;18.70;70.50;;;;;;5035038;28;20075;-67
2024/02/08 12:14:17;;;;;;;1.63;1.38;;;18.70;70.50;;;;;;5035105;28;20034;-68
2024/02/08 12:16:50;;;;;;;1.25;1.15;;;18.60;70.50;;;;;;5034970;28;20064;-66
2024/02/08 12:19:19;;;;;;;1.52;1.00;;;18.60;70.50;;;;;;5034916;28;20079;-67
2024/02/08 12:21:58;;;;;;;1.38;1.08;;;18.70;70.50;;;;;;5034849;28;20079;-67
2024/02/08 12:24:25;;;;;;;1.48;1.13;;;18.70;70.50;;;;;;5034916;28;20392;-67
2024/02/08 12:26:58;;;;;;;2.15;1.20;;;18.60;70.50;;;;;;5034903;28;20034;-67
2024/02/08 12:29:25;;;;;;;2.58;1.30;;;18.70;70.50;;;;;;5034633;28;20552;-67
2024/02/08 12:31:54;;;;;;;1.20;1.10;;;18.70;70.50;;;;;;5034687;28;20104;-68
2024/02/08 12:34:31;;;;;;;1.60;1.20;;;18.70;70.50;;;;;;5034961;28;20101;-68
2024/02/08 12:36:59;;;;;;;1.27;0.90;;;18.70;70.50;;;;;;5034988;28;20026;-68
2024/02/08 12:39:26;;;;;;;1.17;1.08;;;18.70;70.50;;;;;;5034533;28;20033;-66
2024/02/08 12:41:54;;;;;;;1.50;1.17;;;18.60;70.50;;;;;;5033359;28;20018;-68
2024/02/08 12:44:20;;;;;;;1.30;1.20;;;18.70;70.50;;;;;;5034613;28;20025;-68
2024/02/08 12:46:51;;;;;;;1.73;1.10;;;18.60;70.50;;;;;;5034706;28;20439;-68
2024/02/08 12:49:17;;;;;;;;;;;18.70;70.50;;;;;;5035207;28;20151;-68
2024/02/08 12:51:43;;;;;;;1.25;1.00;;;18.60;70.60;;;;;;5034297;28;19909;-67
2024/02/08 12:54:14;;;;;;;1.40;1.00;;;18.60;70.60;;;;;;5034717;28;20040;-68
2024/02/08 12:56:40;;;;;;;0.90;0.90;;;18.60;70.60;;;;;;5034284;28;20559;-67
2024/02/08 12:59:06;;;;;;;1.83;1.40;;;18.60;70.60;;;;;;5034354;28;20037;-68
2024/02/08 13:01:39;;;;;;;2.10;1.33;;;18.60;70.60;;;;;;5034014;28;20505;-68
2024/02/08 13:04:08;;;;;;;2.35;1.23;;;18.60;70.60;;;;;;5034296;28;20049;-67
2024/02/08 13:06:34;;;;;;;1.80;1.08;;;18.60;70.70;;;;;;5034239;28;20401;-67
2024/02/08 13:09:26;;;;;;;1.25;1.08;;;18.60;70.70;;;;;;5034293;28;20018;-68
2024/02/08 13:12:14;;;;;;;1.17;0.98;;;18.60;70.70;;;;;;5032733;28;20033;-68
2024/02/08 13:15:05;;;;;;;1.25;0.90;;;18.60;70.70;;;;;;5034234;28;20030;-68
2024/02/08 13:17:35;;;;;;;1.33;1.08;;;18.60;70.70;;;;;;5032768;28;20017;-68
2024/02/08 13:20:11;;;;;;;1.23;1.13;;;18.60;70.70;;;;;;5034387;28;20565;-68
2024/02/08 13:22:38;;;;;;;1.70;1.00;;;18.60;70.70;;;;;;5032961;28;20405;-68
2024/02/08 13:25:12;;;;;;;1.13;1.02;;;18.60;70.70;;;;;;5036026;28;20109;-68
2024/02/08 13:27:39;;;;;;;0.85;0.82;;;18.60;70.70;;;;;;5046371;28;20028;-68
2024/02/08 13:30:17;;;;;;;1.20;1.00;;;18.60;70.70;;;;;;5045214;28;20028;-67
2024/02/08 13:32:44;;;;;;;4.20;1.83;;;18.70;70.60;;;;;;5044956;28;20025;-68
2024/02/08 13:35:18;;;;;;;2.40;1.20;;;18.60;70.70;;;;;;5035045;28;20107;-67
2024/02/08 13:37:49;;;;;;;1.52;1.30;;;18.60;70.60;;;;;;5033798;28;20053;-67
2024/02/08 13:40:22;;;;;;;1.88;1.10;;;18.60;70.60;;;;;;5033378;28;20078;-65
2024/02/08 13:42:49;;;;;;;1.05;0.93;;;18.60;70.60;;;;;;5033636;28;20041;-67
2024/02/08 13:45:16;;;;;;;1.20;1.00;;;18.60;70.60;;;;;;5033417;28;20021;-67
2024/02/08 13:47:49;;;;;;;1.33;1.23;;;18.60;70.60;;;;;;5033407;28;20021;-67
2024/02/08 13:50:16;;;;;;;1.40;0.90;;;18.60;70.70;;;;;;5033234;28;20026;-67
2024/02/08 13:52:41;;;;;;;2.05;1.13;;;18.60;70.70;;;;;;5033675;28;20393;-67
2024/02/08 13:55:07;;;;;;;1.92;1.00;;;18.60;70.70;;;;;;5033125;28;20037;-67
2024/02/08 13:57:34;;;;;;;1.38;0.90;;;18.60;70.70;;;;;;5033481;28;20029;-67
2024/02/08 14:00:03;;;;;;;1.50;1.13;;;18.60;70.70;;;;;;5033146;28;20029;-67
2024/02/08 14:02:31;;;;;;;1.02;0.90;;;18.60;70.70;;;;;;5032500;28;20445;-67
2024/02/08 14:05:04;;;;;;;1.20;0.70;;;18.60;70.70;;;;;;5032758;28;20018;-67
2024/02/08 14:07:30;;;;;;;1.15;1.05;;;18.70;70.70;;;;;;5032871;28;20021;-67
2024/02/08 14:09:59;;;;;;;1.13;1.02;;;18.60;70.70;;;;;;5033158;28;20021;-67
2024/02/08 14:12:29;;;;;;;1.10;1.00;;;18.60;70.70;;;;;;5032677;28;20470;-67
2024/02/08 14:14:55;;;;;;;1.52;1.00;;;18.60;70.70;;;;;;5032735;28;20033;-67
2024/02/08 14:17:21;;;;;;;1.25;1.10;;;18.60;70.80;;;;;;5032867;28;20048;-67
2024/02/08 14:19:50;;;;;;;1.42;1.02;;;18.60;70.80;;;;;;5031123;28;20029;-67
2024/02/08 14:22:16;;;;;;;1.27;0.90;;;18.60;70.80;;;;;;5032142;28;20026;-67
2024/02/08 14:24:50;;;;;;;1.15;0.80;;;18.60;70.80;;;;;;5032385;28;20389;-67
2024/02/08 14:27:19;;;;;;;1.17;1.08;;;18.60;70.80;;;;;;5032825;28;20025;-67
2024/02/08 14:29:48;;;;;;;2.15;1.17;;;18.60;70.80;;;;;;5032243;28;20404;-67
2024/02/08 14:32:14;;;;;;;1.48;1.17;;;18.60;70.90;;;;;;5032758;28;20025;-69
2024/02/08 14:34:40;;;;;;;1.35;1.00;;;18.60;71.10;;;;;;5032857;28;20025;-68
2024/02/08 14:37:09;;;;;;;1.50;0.98;;;18.60;71.20;;;;;;5032511;28;20505;-69
2024/02/08 14:39:36;;;;;;;4.68;1.65;;;18.60;71.20;;;;;;5032249;28;20104;-69
2024/02/08 14:42:30;;;;;;;1.58;1.10;;;18.60;71.20;;;;;;5031933;28;20029;-68
2024/02/08 14:44:54;;;;;;;6.07;1.20;;;18.60;71.40;;;;;;5031627;28;20034;-68
2024/02/08 14:47:22;;;;;;;3.67;1.77;;;18.60;71.30;;;;;;5032326;28;20021;-68
2024/02/08 14:49:59;;;;;;;4.53;1.65;;;18.60;71.60;;;;;;5032004;28;20378;-68
2024/02/08 14:52:43;;;;;;;1.90;1.50;;;18.70;71.60;;;;;;5032001;28;20124;-67
2024/02/08 14:55:10;;;;;;;3.95;1.25;;;18.70;71.50;;;;;;5032549;28;20025;-67
2024/02/08 14:57:42;;;;;;;4.05;1.40;;;18.70;71.50;;;;;;5032329;28;20519;-67
2024/02/08 15:03:07;;;;;;;3.10;1.30;;;18.70;71.60;;;;;;5031890;28;20139;-68
2024/02/08 15:05:48;;;;;;;5.15;1.00;;;18.60;71.70;;;;;;5031001;28;20097;-68